Terminal Aerodrome Forecast
Issued by NWS Sioux Falls, SD

Home | Current Version | Previous Version | Text Only | Print | Product List | Glossary Off
Versions: 1 2 3 4 5 6 7 8 9 10 11 12 13 14

000
FTUS43 KFSD 181724
TAFFSD
TAF
KFSD 181724Z 1818/1918 32021G30KT P6SM SCT025
     FM182000 32019G29KT P6SM FEW250
     FM190000 32012KT P6SM SKC
     FM190300 28006KT P6SM SKC
     FM191100 24004KT P6SM FEW250=

USA.gov is the U.S. government's official web portal to all federal, state and local government web resources and services.